createdAt,value
2019-04-30T00:01:48.556Z,42.63
2019-04-30T00:04:18.441Z,44.47
2019-04-30T00:06:48.125Z,40.97
2019-04-30T00:09:19.390Z,41.13
2019-04-30T00:11:50.652Z,41.70
2019-04-30T00:14:20.609Z,41.00
2019-04-30T00:16:50.407Z,40.57
2019-04-30T00:19:20.106Z,41.27
2019-04-30T00:21:56.966Z,40.10
2019-04-30T00:24:21.123Z,40.03
2019-04-30T00:26:52.583Z,41.77
2019-04-30T00:29:26.950Z,42.53
2019-04-30T00:31:57.750Z,39.87
2019-04-30T00:34:25.189Z,41.57
2019-04-30T00:36:56.012Z,39.77
2019-04-30T00:39:27.310Z,38.50
2019-04-30T00:41:57.200Z,39.97
2019-04-30T00:44:28.380Z,39.07
2019-04-30T00:47:00.539Z,40.07
2019-04-30T00:49:29.713Z,39.97
2019-04-30T00:51:59.435Z,40.87
2019-04-30T00:54:30.838Z,39.93
2019-04-30T00:57:04.499Z,41.03
2019-04-30T00:59:32.049Z,40.97
2019-04-30T01:02:03.496Z,42.97
2019-04-30T01:04:35.065Z,42.73
2019-04-30T01:07:08.498Z,44.20
2019-04-30T01:09:39.661Z,44.13
2019-04-30T01:12:08.009Z,45.47
2019-04-30T01:14:38.636Z,45.53
2019-04-30T01:17:12.182Z,45.63
2019-04-30T01:19:39.698Z,45.60
2019-04-30T01:22:09.504Z,44.23
2019-04-30T01:24:39.345Z,44.73
2019-04-30T01:27:10.565Z,45.90
2019-04-30T01:29:44.079Z,45.43
2019-04-30T01:32:17.375Z,48.40
2019-04-30T01:34:44.200Z,43.80
2019-04-30T01:37:14.917Z,45.57
2019-04-30T01:39:44.868Z,45.03
2019-04-30T01:42:14.648Z,46.97
2019-04-30T01:44:50.512Z,43.97
2019-04-30T01:47:15.545Z,45.57
2019-04-30T01:49:45.236Z,43.33
2019-04-30T01:52:15.032Z,44.37
2019-04-30T01:54:44.626Z,41.00
2019-04-30T01:57:19.317Z,41.43
2019-04-30T02:00:09.762Z,41.00
2019-04-30T02:02:41.003Z,41.10
2019-04-30T02:05:10.745Z,39.60
2019-04-30T02:07:40.495Z,40.33
2019-04-30T02:10:10.620Z,40.93
2019-04-30T02:12:40.466Z,40.37
2019-04-30T02:15:10.223Z,40.07
2019-04-30T02:17:40.329Z,39.80
2019-04-30T02:20:10.716Z,39.27
2019-04-30T02:22:40.393Z,38.07
2019-04-30T02:25:11.070Z,40.70
2019-04-30T02:27:41.798Z,38.33
2019-04-30T02:30:11.919Z,36.27
2019-04-30T02:32:41.842Z,37.07
2019-04-30T02:35:20.085Z,37.93
2019-04-30T02:38:09.855Z,36.47
2019-04-30T02:40:39.343Z,36.97
2019-04-30T02:43:11.480Z,36.40
2019-04-30T02:45:43.065Z,36.77
2019-04-30T02:48:13.031Z,35.03
2019-04-30T02:50:48.999Z,35.73
2019-04-30T02:54:09.748Z,35.97
2019-04-30T02:56:41.438Z,35.47
2019-04-30T02:59:11.161Z,37.83
2019-04-30T03:01:40.904Z,36.17
2019-04-30T03:04:10.571Z,35.63
2019-04-30T03:06:40.689Z,34.50
2019-04-30T03:09:10.994Z,35.77
2019-04-30T03:11:41.151Z,35.97
2019-04-30T03:14:11.179Z,37.67
2019-04-30T03:16:46.083Z,35.13
2019-04-30T03:19:26.122Z,36.20
2019-04-30T03:21:59.991Z,36.07
2019-04-30T03:24:29.554Z,35.93
2019-04-30T03:26:59.797Z,33.40
2019-04-30T03:29:30.246Z,33.20
2019-04-30T03:32:02.522Z,34.77
2019-04-30T03:34:32.896Z,33.03
2019-04-30T03:37:02.830Z,35.13
2019-04-30T03:39:33.968Z,33.53
2019-04-30T03:42:04.009Z,33.63
2019-04-30T03:44:33.531Z,36.13
2019-04-30T03:47:03.462Z,35.20
2019-04-30T03:49:33.181Z,35.63
2019-04-30T03:52:02.883Z,35.20
2019-04-30T03:54:32.571Z,35.90
2019-04-30T03:57:02.228Z,36.13
2019-04-30T03:59:32.059Z,34.73
2019-04-30T04:02:20.794Z,35.00
2019-04-30T04:04:52.555Z,33.33
2019-04-30T04:07:40.229Z,34.77
2019-04-30T04:10:29.737Z,32.93
2019-04-30T04:12:59.702Z,35.47
2019-04-30T04:15:29.956Z,31.70
2019-04-30T04:18:00.395Z,33.73
2019-04-30T04:20:30.275Z,34.70
2019-04-30T04:22:59.983Z,35.90
2019-04-30T04:25:30.065Z,35.27
2019-04-30T04:28:00.381Z,34.87
2019-04-30T04:30:30.387Z,35.60
2019-04-30T04:33:00.207Z,35.50
2019-04-30T04:35:30.223Z,36.10
2019-04-30T04:38:00.549Z,34.37
2019-04-30T04:40:30.475Z,36.50
2019-04-30T04:43:00.428Z,34.07
2019-04-30T04:45:30.701Z,36.37
2019-04-30T04:48:00.404Z,35.07
2019-04-30T04:50:30.456Z,36.50
2019-04-30T04:53:00.167Z,34.43
2019-04-30T04:55:30.178Z,35.90
2019-04-30T04:58:00.103Z,34.57
2019-04-30T05:00:29.865Z,36.30
2019-04-30T05:03:04.124Z,35.33
2019-04-30T05:05:34.098Z,36.67
2019-04-30T05:08:03.918Z,37.23
2019-04-30T05:10:33.569Z,35.80
2019-04-30T05:13:03.394Z,34.60
2019-04-30T05:15:32.948Z,32.97
2019-04-30T05:18:02.734Z,34.20
2019-04-30T05:20:32.401Z,33.40
2019-04-30T05:23:02.197Z,35.97
2019-04-30T05:25:32.204Z,33.77
2019-04-30T05:28:02.035Z,34.10
2019-04-30T05:30:31.784Z,34.33
2019-04-30T05:33:01.474Z,35.10
2019-04-30T05:35:31.270Z,34.13
2019-04-30T05:38:00.863Z,33.30
2019-04-30T05:40:30.508Z,34.47
2019-04-30T05:43:00.461Z,33.10
2019-04-30T05:45:30.134Z,33.87
2019-04-30T05:47:59.796Z,33.77
2019-04-30T05:50:29.738Z,31.63
2019-04-30T05:52:59.344Z,31.67
2019-04-30T05:55:29.505Z,30.63
2019-04-30T05:58:01.526Z,31.17
2019-04-30T06:00:30.858Z,31.83
2019-04-30T06:03:00.501Z,32.33
2019-04-30T06:05:30.213Z,32.50
2019-04-30T06:08:00.335Z,30.60
2019-04-30T06:10:49.572Z,32.37
2019-04-30T06:13:31.943Z,30.73
2019-04-30T06:16:08.823Z,30.70
2019-04-30T06:18:38.658Z,32.30
2019-04-30T06:21:09.161Z,30.43
2019-04-30T06:23:39.395Z,30.87
2019-04-30T06:26:13.070Z,30.30
2019-04-30T06:28:41.620Z,30.80
2019-04-30T06:31:11.224Z,32.63
2019-04-30T06:33:41.253Z,31.23
2019-04-30T06:36:11.449Z,30.10
2019-04-30T06:38:41.210Z,30.37
2019-04-30T06:41:10.888Z,27.90
2019-04-30T06:43:40.639Z,29.90
2019-04-30T06:46:10.793Z,26.87
2019-04-30T06:48:41.860Z,28.67
2019-04-30T06:51:11.637Z,28.63
2019-04-30T06:53:41.282Z,29.47
2019-04-30T06:56:10.964Z,27.77
2019-04-30T06:58:41.407Z,30.83
2019-04-30T07:01:11.171Z,28.43
2019-04-30T07:03:40.796Z,29.00
2019-04-30T07:06:10.507Z,27.83
2019-04-30T07:08:46.781Z,27.50
2019-04-30T07:11:21.803Z,27.30
2019-04-30T07:13:52.246Z,28.27
2019-04-30T07:16:22.514Z,25.77
2019-04-30T07:18:52.099Z,26.97
2019-04-30T07:21:21.908Z,26.87
2019-04-30T07:23:51.673Z,27.03
2019-04-30T07:26:24.347Z,28.23
2019-04-30T07:28:55.228Z,26.33
2019-04-30T07:31:24.629Z,26.93
2019-04-30T07:33:54.297Z,27.47
2019-04-30T07:36:42.441Z,26.70
2019-04-30T07:38:56.767Z,26.30
2019-04-30T07:41:26.914Z,25.43
2019-04-30T07:43:56.541Z,26.60
2019-04-30T07:46:26.259Z,25.00
2019-04-30T07:48:55.953Z,24.53
2019-04-30T07:51:26.379Z,22.80
2019-04-30T07:53:56.553Z,23.80
2019-04-30T07:56:29.283Z,23.70
2019-04-30T07:59:00.688Z,24.20
2019-04-30T08:01:29.603Z,25.30
2019-04-30T08:04:09.676Z,23.73
2019-04-30T08:06:39.902Z,20.60
2019-04-30T08:09:11.168Z,24.90
2019-04-30T08:11:43.401Z,25.40
2019-04-30T08:14:12.459Z,25.53
2019-04-30T08:16:42.558Z,22.60
2019-04-30T08:19:12.497Z,24.53
2019-04-30T08:21:42.065Z,23.27
2019-04-30T08:24:12.007Z,22.60
2019-04-30T08:26:42.149Z,23.47
2019-04-30T08:29:11.769Z,23.30
2019-04-30T08:31:41.611Z,22.47
2019-04-30T08:34:11.455Z,24.03
2019-04-30T08:36:41.239Z,22.80
2019-04-30T08:39:11.398Z,24.40
2019-04-30T08:41:41.156Z,24.03
2019-04-30T08:44:11.004Z,23.97
2019-04-30T08:46:40.718Z,24.10
2019-04-30T08:49:10.720Z,24.77
2019-04-30T08:51:40.929Z,23.83
2019-04-30T08:54:10.917Z,24.37
2019-04-30T08:56:40.612Z,26.37
2019-04-30T08:59:11.199Z,24.37
2019-04-30T09:01:40.991Z,25.07
2019-04-30T09:04:10.682Z,23.20
2019-04-30T09:06:40.409Z,25.07
2019-04-30T09:09:11.751Z,24.60
2019-04-30T09:11:51.828Z,25.80
2019-04-30T09:14:12.974Z,24.07
2019-04-30T09:16:42.753Z,23.07
2019-04-30T09:19:12.764Z,22.23
2019-04-30T09:21:42.542Z,23.20
2019-04-30T09:24:12.227Z,21.73
2019-04-30T09:26:42.131Z,21.07
2019-04-30T09:29:11.822Z,21.43
2019-04-30T09:31:44.264Z,23.57
2019-04-30T09:34:17.671Z,22.63
2019-04-30T09:36:45.343Z,22.07
2019-04-30T09:39:15.245Z,23.93
2019-04-30T09:41:45.045Z,21.63
2019-04-30T09:44:14.739Z,22.13
2019-04-30T09:46:44.779Z,22.53
2019-04-30T09:49:14.733Z,22.47
2019-04-30T09:51:44.572Z,22.80
2019-04-30T09:54:14.709Z,22.80
2019-04-30T09:56:44.746Z,22.97
2019-04-30T09:59:14.435Z,21.67
2019-04-30T10:01:44.241Z,21.63
2019-04-30T10:04:14.327Z,19.60
2019-04-30T10:06:44.235Z,21.87
2019-04-30T10:09:15.324Z,22.43
2019-04-30T10:11:55.372Z,21.97
2019-04-30T10:14:25.054Z,21.40
2019-04-30T10:17:12.512Z,20.97
2019-04-30T10:19:42.182Z,22.53
2019-04-30T10:22:12.002Z,22.30
2019-04-30T10:24:41.825Z,21.40
2019-04-30T10:27:13.413Z,21.57
2019-04-30T10:29:43.480Z,21.13
2019-04-30T10:32:13.485Z,20.80
2019-04-30T10:34:43.196Z,20.97
2019-04-30T10:37:13.197Z,21.17
2019-04-30T10:39:43.103Z,20.23
2019-04-30T10:42:12.766Z,21.57
2019-04-30T10:44:42.424Z,21.57
2019-04-30T10:47:12.336Z,19.73
2019-04-30T10:49:42.233Z,19.40
2019-04-30T10:52:12.081Z,20.40
2019-04-30T10:54:41.826Z,19.50
2019-04-30T10:57:11.673Z,20.73
2019-04-30T10:59:41.326Z,21.17
2019-04-30T11:02:11.215Z,21.97
2019-04-30T11:04:41.178Z,20.80
2019-04-30T11:07:10.799Z,20.23
2019-04-30T11:09:40.525Z,19.07
2019-04-30T11:12:10.347Z,20.10
2019-04-30T11:14:40.193Z,20.23
2019-04-30T11:17:10.129Z,19.70
2019-04-30T11:19:40.422Z,21.90
2019-04-30T11:22:10.284Z,18.07
2019-04-30T11:24:53.811Z,17.10
2019-04-30T11:27:13.144Z,17.33
2019-04-30T11:29:43.308Z,18.53
2019-04-30T11:32:15.095Z,19.67
2019-04-30T11:34:45.015Z,17.30
2019-04-30T11:37:14.962Z,16.63
2019-04-30T11:39:44.791Z,18.00
2019-04-30T11:42:14.475Z,17.07
2019-04-30T11:44:44.385Z,16.30
2019-04-30T11:47:29.096Z,18.37
2019-04-30T11:49:58.821Z,18.40
2019-04-30T11:52:28.868Z,19.03
2019-04-30T11:54:59.734Z,18.00
2019-04-30T11:57:29.888Z,19.20
2019-04-30T11:59:59.627Z,18.70
2019-04-30T12:02:34.111Z,18.70
2019-04-30T12:05:06.746Z,19.47
2019-04-30T12:07:41.745Z,19.20
2019-04-30T12:10:19.498Z,18.30
2019-04-30T12:12:49.129Z,18.13
2019-04-30T12:15:19.315Z,17.87
2019-04-30T12:17:49.040Z,19.87
2019-04-30T12:20:19.698Z,20.70
2019-04-30T12:22:49.471Z,20.60
2019-04-30T12:25:19.155Z,19.93
2019-04-30T12:27:48.986Z,19.27
2019-04-30T12:30:20.803Z,18.57
2019-04-30T12:32:50.745Z,19.70
2019-04-30T12:35:20.708Z,20.47
2019-04-30T12:37:52.339Z,19.90
2019-04-30T12:40:28.978Z,19.03
2019-04-30T12:42:53.609Z,17.70
2019-04-30T12:45:23.546Z,15.57
2019-04-30T12:47:54.939Z,18.97
2019-04-30T12:50:26.445Z,18.20
2019-04-30T12:52:59.447Z,18.23
2019-04-30T12:55:40.651Z,17.70
2019-04-30T12:58:10.326Z,14.50
2019-04-30T13:00:40.259Z,14.53
2019-04-30T13:03:10.090Z,14.03
2019-04-30T13:05:39.944Z,14.13
2019-04-30T13:08:10.301Z,14.93
2019-04-30T13:10:40.754Z,14.97
2019-04-30T13:13:11.398Z,16.00
2019-04-30T13:15:41.472Z,13.63
2019-04-30T13:18:11.337Z,12.90
2019-04-30T13:20:41.084Z,13.63
2019-04-30T13:23:10.957Z,12.97
2019-04-30T13:25:50.670Z,13.53
2019-04-30T13:28:13.669Z,11.23
2019-04-30T13:30:43.383Z,10.70
2019-04-30T13:33:20.422Z,8.70
2019-04-30T13:35:50.544Z,9.47
2019-04-30T13:38:47.401Z,9.83
2019-04-30T13:41:09.663Z,11.97
2019-04-30T13:43:54.268Z,12.37
2019-04-30T13:46:24.661Z,11.93
2019-04-30T13:48:54.564Z,11.37
2019-04-30T13:51:24.232Z,11.73
2019-04-30T13:53:54.484Z,11.77
2019-04-30T13:56:24.217Z,11.73
2019-04-30T13:58:54.020Z,10.60
2019-04-30T14:01:23.623Z,10.77
2019-04-30T14:04:09.890Z,9.27
2019-04-30T14:06:44.165Z,12.13
2019-04-30T14:09:21.500Z,10.73
2019-04-30T14:11:51.393Z,9.57
2019-04-30T14:14:21.337Z,10.60
2019-04-30T14:16:51.495Z,10.63
2019-04-30T14:19:21.783Z,10.87
2019-04-30T14:21:52.057Z,10.90
2019-04-30T14:24:21.858Z,10.10
2019-04-30T14:26:51.622Z,9.77
2019-04-30T14:29:21.419Z,10.60
2019-04-30T14:31:51.358Z,10.23
2019-04-30T14:34:20.988Z,11.00
2019-04-30T14:36:50.960Z,9.83
2019-04-30T14:39:20.698Z,9.10
2019-04-30T14:41:52.113Z,9.77
2019-04-30T14:44:24.385Z,10.40
2019-04-30T14:46:54.994Z,8.97
2019-04-30T14:49:39.471Z,10.50
2019-04-30T14:52:09.843Z,11.03
2019-04-30T14:54:41.314Z,10.07
2019-04-30T14:57:28.776Z,10.93
2019-04-30T15:00:02.055Z,10.53
2019-04-30T15:02:35.823Z,11.50
2019-04-30T15:05:08.953Z,11.80
2019-04-30T15:07:39.683Z,11.40
2019-04-30T15:10:09.649Z,11.00
2019-04-30T15:12:39.360Z,11.03
2019-04-30T15:15:09.887Z,11.23
2019-04-30T15:17:41.279Z,11.30
2019-04-30T15:20:11.849Z,10.87
2019-04-30T15:22:43.138Z,11.40
2019-04-30T15:25:13.197Z,11.23
2019-04-30T15:27:46.702Z,11.77
2019-04-30T15:30:21.460Z,12.00
2019-04-30T15:32:49.550Z,11.97
2019-04-30T15:35:19.820Z,12.03
2019-04-30T15:37:51.174Z,12.63
2019-04-30T15:40:20.749Z,12.67
2019-04-30T15:42:52.088Z,12.80
2019-04-30T15:45:21.618Z,13.37
2019-04-30T15:47:51.383Z,12.83
2019-04-30T15:50:21.115Z,13.07
2019-04-30T15:52:50.760Z,13.77
2019-04-30T15:55:20.483Z,12.93
2019-04-30T15:57:59.362Z,12.50
2019-04-30T16:00:31.337Z,13.43
2019-04-30T16:03:02.847Z,12.93
2019-04-30T16:05:34.031Z,13.33
2019-04-30T16:08:05.440Z,13.87
2019-04-30T16:10:40.791Z,13.20
2019-04-30T16:13:15.005Z,13.80
2019-04-30T16:15:44.830Z,15.00
2019-04-30T16:18:14.699Z,13.97
2019-04-30T16:20:44.271Z,13.73
2019-04-30T16:23:14.125Z,14.43
2019-04-30T16:25:43.758Z,14.10
2019-04-30T16:28:13.630Z,13.17
2019-04-30T16:30:43.412Z,13.43
2019-04-30T16:33:13.368Z,13.40
2019-04-30T16:35:43.170Z,14.23
2019-04-30T16:38:12.854Z,14.17
2019-04-30T16:40:42.543Z,14.23
2019-04-30T16:43:12.341Z,14.57
2019-04-30T16:45:42.443Z,13.23
2019-04-30T16:48:12.228Z,14.70
2019-04-30T16:50:41.985Z,13.47
2019-04-30T16:53:11.650Z,14.40
2019-04-30T16:55:41.554Z,15.10
2019-04-30T16:58:11.201Z,14.00
2019-04-30T17:00:40.943Z,14.97
2019-04-30T17:03:12.447Z,14.30
2019-04-30T17:05:49.961Z,14.77
2019-04-30T17:08:24.515Z,15.33
2019-04-30T17:10:55.775Z,14.50
2019-04-30T17:13:28.472Z,14.93
2019-04-30T17:16:11.936Z,16.90
2019-04-30T17:18:41.797Z,14.87
2019-04-30T17:21:11.759Z,15.30
2019-04-30T17:23:41.699Z,15.77
2019-04-30T17:26:11.443Z,16.23
2019-04-30T17:28:41.083Z,15.37
2019-04-30T17:31:13.409Z,16.60
2019-04-30T17:33:42.539Z,17.00
2019-04-30T17:36:12.259Z,16.93
2019-04-30T17:38:41.862Z,14.87
2019-04-30T17:41:11.745Z,16.53
2019-04-30T17:43:41.733Z,18.80
2019-04-30T17:46:11.701Z,18.27
2019-04-30T17:48:41.744Z,18.33
2019-04-30T17:51:11.556Z,17.20
2019-04-30T17:53:43.008Z,19.33
2019-04-30T17:56:12.920Z,17.23
2019-04-30T17:58:42.674Z,16.67
2019-04-30T18:01:13.635Z,17.03
2019-04-30T18:03:43.505Z,18.03
2019-04-30T18:06:13.145Z,16.50
2019-04-30T18:08:42.918Z,17.07
2019-04-30T18:11:13.411Z,17.77
2019-04-30T18:13:43.957Z,17.57
2019-04-30T18:16:14.637Z,17.20
2019-04-30T18:18:51.202Z,17.40
2019-04-30T18:21:41.330Z,17.63
2019-04-30T18:24:21.767Z,16.33
2019-04-30T18:26:53.400Z,16.80
2019-04-30T18:29:23.684Z,16.83
2019-04-30T18:31:53.636Z,17.27
2019-04-30T18:34:23.544Z,17.27
2019-04-30T18:36:53.556Z,16.70
2019-04-30T18:39:23.757Z,17.03
2019-04-30T18:41:54.154Z,16.87
2019-04-30T18:44:24.184Z,17.63
2019-04-30T18:46:55.459Z,17.53
2019-04-30T18:49:28.735Z,16.97
2019-04-30T18:51:59.125Z,16.77
2019-04-30T18:54:29.100Z,18.57
2019-04-30T18:56:59.024Z,17.97
2019-04-30T18:59:28.822Z,17.67
2019-04-30T19:01:58.977Z,17.90
2019-04-30T19:04:28.939Z,17.90
2019-04-30T19:07:00.341Z,17.10
2019-04-30T19:09:29.950Z,18.10
2019-04-30T19:12:05.643Z,18.07
2019-04-30T19:14:35.248Z,17.60
2019-04-30T19:17:09.456Z,17.87
2019-04-30T19:19:49.786Z,19.00
2019-04-30T19:22:20.192Z,19.70
2019-04-30T19:24:56.080Z,20.17
2019-04-30T19:27:21.906Z,20.00
2019-04-30T19:29:52.019Z,19.83
2019-04-30T19:32:21.841Z,19.60
2019-04-30T19:34:51.966Z,20.40
2019-04-30T19:37:22.188Z,19.27
2019-04-30T19:39:52.070Z,20.97
2019-04-30T19:42:22.010Z,19.47
2019-04-30T19:44:59.789Z,19.93
2019-04-30T19:47:23.994Z,20.37
2019-04-30T19:49:54.249Z,21.20
2019-04-30T19:52:24.554Z,20.53
2019-04-30T19:54:54.882Z,21.57
2019-04-30T19:57:25.366Z,21.50
2019-04-30T19:59:55.661Z,21.07
2019-04-30T20:02:25.835Z,21.47
2019-04-30T20:04:55.798Z,21.40
2019-04-30T20:07:25.755Z,21.13
2019-04-30T20:10:03.323Z,21.27
2019-04-30T20:12:29.049Z,22.67
2019-04-30T20:15:00.563Z,23.37
2019-04-30T20:17:30.643Z,24.63
2019-04-30T20:20:00.788Z,25.17
2019-04-30T20:22:30.737Z,24.13
2019-04-30T20:25:00.480Z,23.83
2019-04-30T20:27:30.505Z,23.07
2019-04-30T20:30:00.355Z,24.27
2019-04-30T20:32:36.151Z,22.80
2019-04-30T20:35:02.117Z,22.57
2019-04-30T20:37:31.952Z,23.40
2019-04-30T20:40:03.696Z,24.93
2019-04-30T20:42:33.695Z,25.40
2019-04-30T20:45:04.307Z,25.37
2019-04-30T20:47:34.525Z,24.47
2019-04-30T20:50:04.584Z,27.50
2019-04-30T20:52:34.357Z,25.27
2019-04-30T20:55:04.626Z,26.53
2019-04-30T20:57:34.568Z,26.47
2019-04-30T21:00:06.417Z,26.63
2019-04-30T21:02:36.171Z,26.20
2019-04-30T21:05:06.860Z,26.90
2019-04-30T21:07:36.676Z,27.30
2019-04-30T21:10:09.990Z,26.60
2019-04-30T21:12:39.697Z,27.37
2019-04-30T21:15:09.771Z,28.47
2019-04-30T21:17:39.888Z,25.53
2019-04-30T21:20:11.053Z,25.80
2019-04-30T21:22:41.123Z,28.33
2019-04-30T21:25:12.430Z,26.80
2019-04-30T21:27:42.492Z,27.10
2019-04-30T21:30:13.201Z,26.10
2019-04-30T21:32:56.954Z,26.80
2019-04-30T21:35:26.827Z,31.03
2019-04-30T21:37:59.028Z,29.20
2019-04-30T21:40:29.736Z,29.07
2019-04-30T21:42:59.746Z,28.43
2019-04-30T21:45:31.533Z,26.70
2019-04-30T21:48:01.494Z,28.83
2019-04-30T21:50:31.185Z,28.70
2019-04-30T21:53:00.866Z,29.70
2019-04-30T21:55:30.613Z,31.07
2019-04-30T21:58:00.538Z,30.73
2019-04-30T22:00:40.013Z,29.27
2019-04-30T22:03:09.832Z,30.43
2019-04-30T22:05:39.819Z,30.67
2019-04-30T22:08:09.471Z,30.77
2019-04-30T22:10:39.345Z,30.77
2019-04-30T22:13:09.028Z,29.60
2019-04-30T22:15:38.824Z,31.17
2019-04-30T22:18:08.405Z,31.47
2019-04-30T22:20:38.858Z,32.07
2019-04-30T22:23:08.692Z,32.83
2019-04-30T22:25:39.268Z,32.80
2019-04-30T22:28:08.951Z,31.63
2019-04-30T22:30:38.674Z,31.27
2019-04-30T22:33:08.902Z,31.17
2019-04-30T22:35:57.919Z,31.40
2019-04-30T22:38:45.214Z,35.37
2019-04-30T22:41:14.918Z,32.90
2019-04-30T22:43:44.627Z,31.60
2019-04-30T22:46:16.154Z,34.73
2019-04-30T22:48:45.852Z,34.87
2019-04-30T22:51:15.624Z,34.20
2019-04-30T22:53:45.184Z,35.57
2019-04-30T22:56:14.980Z,33.97
2019-04-30T22:58:44.642Z,33.97
2019-04-30T23:01:16.792Z,35.07
2019-04-30T23:03:46.875Z,35.80
2019-04-30T23:06:16.795Z,36.77
2019-04-30T23:08:46.376Z,36.07
2019-04-30T23:11:16.200Z,36.03
2019-04-30T23:13:45.844Z,37.67
2019-04-30T23:16:15.959Z,35.77
2019-04-30T23:18:45.753Z,36.13
2019-04-30T23:21:15.415Z,35.37
2019-04-30T23:23:45.194Z,36.60
2019-04-30T23:26:14.914Z,37.93
2019-04-30T23:28:44.594Z,36.80
2019-04-30T23:31:14.292Z,37.30
2019-04-30T23:33:44.012Z,37.67
2019-04-30T23:36:13.895Z,37.87
2019-04-30T23:38:43.599Z,35.77
2019-04-30T23:41:13.220Z,37.40
2019-04-30T23:43:43.104Z,36.73
2019-04-30T23:46:12.758Z,38.47
2019-04-30T23:48:42.450Z,37.53
2019-04-30T23:51:12.031Z,37.73
2019-04-30T23:53:41.618Z,37.23
2019-04-30T23:56:11.464Z,36.90
2019-04-30T23:58:41.495Z,37.50
